sensor_id;sensor_type;location;lat;lon;timestamp;pressure;altitude;pressure_sealevel;temperature;humidity
70506;BME280;58032;49.820;6.274;2022-12-18T00:01:24;67390.78;;;-149.55;100.00
70506;BME280;58032;49.820;6.274;2022-12-18T00:03:52;67390.78;;;-149.55;100.00
70506;BME280;58032;49.820;6.274;2022-12-18T00:06:20;67390.78;;;-149.55;100.00
70506;BME280;58032;49.820;6.274;2022-12-18T00:08:48;67390.78;;;-149.55;100.00
70506;BME280;58032;49.820;6.274;2022-12-18T00:11:17;67390.78;;;-149.55;100.00
70506;BME280;58032;49.820;6.274;2022-12-18T00:13:45;67390.78;;;-149.55;100.00
70506;BME280;58032;49.820;6.274;2022-12-18T00:16:17;67390.78;;;-149.55;100.00
70506;BME280;58032;49.820;6.274;2022-12-18T00:18:49;67390.78;;;-149.55;100.00
70506;BME280;58032;49.820;6.274;2022-12-18T00:21:16;67390.78;;;-149.55;100.00
70506;BME280;58032;49.820;6.274;2022-12-18T00:23:44;67390.78;;;-149.55;100.00
70506;BME280;58032;49.820;6.274;2022-12-18T00:26:13;67390.78;;;-149.55;100.00
70506;BME280;58032;49.820;6.274;2022-12-18T00:28:43;67390.78;;;-149.55;100.00
70506;BME280;58032;49.820;6.274;2022-12-18T00:31:13;67390.78;;;-149.55;100.00
70506;BME280;58032;49.820;6.274;2022-12-18T00:33:41;67390.78;;;-149.55;100.00
70506;BME280;58032;49.820;6.274;2022-12-18T00:36:11;67390.78;;;-149.55;100.00
70506;BME280;58032;49.820;6.274;2022-12-18T00:38:39;67390.78;;;-149.55;100.00
70506;BME280;58032;49.820;6.274;2022-12-18T00:41:09;67390.78;;;-149.55;100.00
70506;BME280;58032;49.820;6.274;2022-12-18T00:43:37;67390.78;;;-149.55;100.00
70506;BME280;58032;49.820;6.274;2022-12-18T00:46:05;67390.78;;;-149.55;100.00
70506;BME280;58032;49.820;6.274;2022-12-18T00:48:32;67390.78;;;-149.55;100.00
70506;BME280;58032;49.820;6.274;2022-12-18T00:50:59;67390.78;;;-149.55;100.00
70506;BME280;58032;49.820;6.274;2022-12-18T00:53:26;67390.78;;;-149.55;100.00
70506;BME280;58032;49.820;6.274;2022-12-18T00:55:54;67390.78;;;-149.55;100.00
70506;BME280;58032;49.820;6.274;2022-12-18T00:58:21;67390.78;;;-149.55;100.00
70506;BME280;58032;49.820;6.274;2022-12-18T01:00:48;67390.78;;;-149.55;100.00
70506;BME280;58032;49.820;6.274;2022-12-18T01:03:15;67390.78;;;-149.55;100.00
70506;BME280;58032;49.820;6.274;2022-12-18T01:05:43;67390.78;;;-149.55;100.00
70506;BME280;58032;49.820;6.274;2022-12-18T01:08:10;67390.78;;;-149.55;100.00
70506;BME280;58032;49.820;6.274;2022-12-18T01:10:41;67390.78;;;-149.55;100.00
70506;BME280;58032;49.820;6.274;2022-12-18T01:13:08;67390.78;;;-149.55;100.00
70506;BME280;58032;49.820;6.274;2022-12-18T01:15:35;67390.78;;;-149.55;100.00
70506;BME280;58032;49.820;6.274;2022-12-18T01:18:05;67390.78;;;-149.55;100.00
70506;BME280;58032;49.820;6.274;2022-12-18T01:20:32;67390.78;;;-149.55;100.00
70506;BME280;58032;49.820;6.274;2022-12-18T01:22:59;67390.78;;;-149.55;100.00
70506;BME280;58032;49.820;6.274;2022-12-18T01:25:26;67390.78;;;-149.55;100.00
70506;BME280;58032;49.820;6.274;2022-12-18T01:27:53;67390.78;;;-149.55;100.00
70506;BME280;58032;49.820;6.274;2022-12-18T01:30:20;67390.78;;;-149.55;100.00
70506;BME280;58032;49.820;6.274;2022-12-18T01:32:46;67390.78;;;-149.55;100.00
70506;BME280;58032;49.820;6.274;2022-12-18T01:35:14;67390.78;;;-149.55;100.00
70506;BME280;58032;49.820;6.274;2022-12-18T01:37:41;67390.78;;;-149.55;100.00
70506;BME280;58032;49.820;6.274;2022-12-18T01:40:08;67390.78;;;-149.55;100.00
70506;BME280;58032;49.820;6.274;2022-12-18T01:42:35;67390.78;;;-149.55;100.00
70506;BME280;58032;49.820;6.274;2022-12-18T01:50:04;67390.78;;;-149.55;100.00
70506;BME280;58032;49.820;6.274;2022-12-18T01:52:32;67390.78;;;-149.55;100.00
70506;BME280;58032;49.820;6.274;2022-12-18T01:55:02;67390.78;;;-149.55;100.00
70506;BME280;58032;49.820;6.274;2022-12-18T01:57:30;67390.78;;;-149.55;100.00
70506;BME280;58032;49.820;6.274;2022-12-18T02:00:01;67390.78;;;-149.55;100.00
70506;BME280;58032;49.820;6.274;2022-12-18T02:02:42;67390.78;;;-149.55;100.00
70506;BME280;58032;49.820;6.274;2022-12-18T02:05:13;67390.78;;;-149.55;100.00
70506;BME280;58032;49.820;6.274;2022-12-18T02:10:20;67390.78;;;-149.55;100.00
70506;BME280;58032;49.820;6.274;2022-12-18T02:12:58;67390.78;;;-149.55;100.00
70506;BME280;58032;49.820;6.274;2022-12-18T02:15:37;67390.78;;;-149.55;100.00
70506;BME280;58032;49.820;6.274;2022-12-18T02:18:19;67390.78;;;-149.55;100.00
70506;BME280;58032;49.820;6.274;2022-12-18T02:23:54;67390.78;;;-149.55;100.00
70506;BME280;58032;49.820;6.274;2022-12-18T02:26:50;67390.78;;;-149.55;100.00
70506;BME280;58032;49.820;6.274;2022-12-18T02:29:24;67390.78;;;-149.55;100.00
70506;BME280;58032;49.820;6.274;2022-12-18T02:31:59;67390.78;;;-149.55;100.00
70506;BME280;58032;49.820;6.274;2022-12-18T02:34:30;67390.78;;;-149.55;100.00
70506;BME280;58032;49.820;6.274;2022-12-18T02:37:01;67390.78;;;-149.55;100.00
70506;BME280;58032;49.820;6.274;2022-12-18T02:39:30;67390.78;;;-149.55;100.00
70506;BME280;58032;49.820;6.274;2022-12-18T02:42:02;67390.78;;;-149.55;100.00
70506;BME280;58032;49.820;6.274;2022-12-18T02:44:41;67390.78;;;-149.55;100.00
70506;BME280;58032;49.820;6.274;2022-12-18T02:47:10;67390.78;;;-149.55;100.00
70506;BME280;58032;49.820;6.274;2022-12-18T02:55:00;67390.78;;;-149.55;100.00
70506;BME280;58032;49.820;6.274;2022-12-18T02:57:39;67390.78;;;-149.55;100.00
70506;BME280;58032;49.820;6.274;2022-12-18T03:00:25;67390.78;;;-149.55;100.00
70506;BME280;58032;49.820;6.274;2022-12-18T03:03:05;67390.78;;;-149.55;100.00
70506;BME280;58032;49.820;6.274;2022-12-18T03:05:38;67390.78;;;-149.55;100.00
70506;BME280;58032;49.820;6.274;2022-12-18T03:08:10;67390.78;;;-149.55;100.00
70506;BME280;58032;49.820;6.274;2022-12-18T03:10:44;67390.78;;;-149.55;100.00
70506;BME280;58032;49.820;6.274;2022-12-18T03:13:26;67390.78;;;-149.55;100.00
70506;BME280;58032;49.820;6.274;2022-12-18T03:15:55;67390.78;;;-149.55;100.00
70506;BME280;58032;49.820;6.274;2022-12-18T03:18:39;67390.78;;;-149.55;100.00
70506;BME280;58032;49.820;6.274;2022-12-18T03:21:10;67390.78;;;-149.55;100.00
70506;BME280;58032;49.820;6.274;2022-12-18T03:23:44;67390.78;;;-149.55;100.00
70506;BME280;58032;49.820;6.274;2022-12-18T03:26:17;67390.78;;;-149.55;100.00
70506;BME280;58032;49.820;6.274;2022-12-18T03:28:59;67390.78;;;-149.55;100.00
70506;BME280;58032;49.820;6.274;2022-12-18T03:31:35;67390.78;;;-149.55;100.00
70506;BME280;58032;49.820;6.274;2022-12-18T03:34:09;67390.78;;;-149.55;100.00
70506;BME280;58032;49.820;6.274;2022-12-18T03:36:42;67390.78;;;-149.55;100.00
70506;BME280;58032;49.820;6.274;2022-12-18T03:39:10;67390.78;;;-149.55;100.00
70506;BME280;58032;49.820;6.274;2022-12-18T03:41:54;67390.78;;;-149.55;100.00
70506;BME280;58032;49.820;6.274;2022-12-18T03:47:52;67390.78;;;-149.55;100.00
70506;BME280;58032;49.820;6.274;2022-12-18T03:50:48;67390.78;;;-149.55;100.00
70506;BME280;58032;49.820;6.274;2022-12-18T03:56:05;67390.78;;;-149.55;100.00
70506;BME280;58032;49.820;6.274;2022-12-18T03:58:38;67390.78;;;-149.55;100.00
70506;BME280;58032;49.820;6.274;2022-12-18T04:01:15;67390.78;;;-149.55;100.00
70506;BME280;58032;49.820;6.274;2022-12-18T04:03:44;67390.78;;;-149.55;100.00
70506;BME280;58032;49.820;6.274;2022-12-18T04:06:14;67390.78;;;-149.55;100.00
70506;BME280;58032;49.820;6.274;2022-12-18T04:08:43;67390.78;;;-149.55;100.00
70506;BME280;58032;49.820;6.274;2022-12-18T04:11:15;67390.78;;;-149.55;100.00
70506;BME280;58032;49.820;6.274;2022-12-18T04:13:44;67390.78;;;-149.55;100.00
70506;BME280;58032;49.820;6.274;2022-12-18T04:16:18;67390.78;;;-149.55;100.00
70506;BME280;58032;49.820;6.274;2022-12-18T04:18:48;67390.78;;;-149.55;100.00
70506;BME280;58032;49.820;6.274;2022-12-18T04:21:15;67390.78;;;-149.55;100.00
70506;BME280;58032;49.820;6.274;2022-12-18T04:23:42;67390.78;;;-149.55;100.00
70506;BME280;58032;49.820;6.274;2022-12-18T04:26:09;67390.78;;;-149.55;100.00
70506;BME280;58032;49.820;6.274;2022-12-18T04:28:58;67390.78;;;-149.55;100.00
70506;BME280;58032;49.820;6.274;2022-12-18T04:31:25;67390.78;;;-149.55;100.00
70506;BME280;58032;49.820;6.274;2022-12-18T04:33:52;67390.78;;;-149.55;100.00
70506;BME280;58032;49.820;6.274;2022-12-18T04:36:19;67390.78;;;-149.55;100.00
70506;BME280;58032;49.820;6.274;2022-12-18T04:38:46;67390.78;;;-149.55;100.00
70506;BME280;58032;49.820;6.274;2022-12-18T04:41:15;67390.78;;;-149.55;100.00
70506;BME280;58032;49.820;6.274;2022-12-18T04:43:45;67390.78;;;-149.55;100.00
70506;BME280;58032;49.820;6.274;2022-12-18T04:46:12;67390.78;;;-149.55;100.00
70506;BME280;58032;49.820;6.274;2022-12-18T04:48:40;67390.78;;;-149.55;100.00
70506;BME280;58032;49.820;6.274;2022-12-18T04:51:07;67390.78;;;-149.55;100.00
70506;BME280;58032;49.820;6.274;2022-12-18T04:53:34;67390.78;;;-149.55;100.00
70506;BME280;58032;49.820;6.274;2022-12-18T04:56:11;67390.78;;;-149.55;100.00
70506;BME280;58032;49.820;6.274;2022-12-18T04:58:39;67390.78;;;-149.55;100.00
70506;BME280;58032;49.820;6.274;2022-12-18T05:01:07;67390.78;;;-149.55;100.00
70506;BME280;58032;49.820;6.274;2022-12-18T05:03:35;67390.78;;;-149.55;100.00
70506;BME280;58032;49.820;6.274;2022-12-18T05:06:03;67390.78;;;-149.55;100.00
70506;BME280;58032;49.820;6.274;2022-12-18T05:08:31;67390.78;;;-149.55;100.00
70506;BME280;58032;49.820;6.274;2022-12-18T05:10:59;67390.78;;;-149.55;100.00
70506;BME280;58032;49.820;6.274;2022-12-18T05:13:27;67390.78;;;-149.55;100.00
70506;BME280;58032;49.820;6.274;2022-12-18T05:15:55;67390.78;;;-149.55;100.00
70506;BME280;58032;49.820;6.274;2022-12-18T05:18:22;67390.78;;;-149.55;100.00
70506;BME280;58032;49.820;6.274;2022-12-18T05:20:51;67390.78;;;-149.55;100.00
70506;BME280;58032;49.820;6.274;2022-12-18T05:23:19;67390.78;;;-149.55;100.00
70506;BME280;58032;49.820;6.274;2022-12-18T05:25:54;67390.78;;;-149.55;100.00
70506;BME280;58032;49.820;6.274;2022-12-18T05:28:23;67390.78;;;-149.55;100.00
70506;BME280;58032;49.820;6.274;2022-12-18T05:30:52;67390.78;;;-149.55;100.00
70506;BME280;58032;49.820;6.274;2022-12-18T05:33:21;67390.78;;;-149.55;100.00
70506;BME280;58032;49.820;6.274;2022-12-18T05:35:53;67390.78;;;-149.55;100.00
70506;BME280;58032;49.820;6.274;2022-12-18T05:38:22;67390.78;;;-149.55;100.00
70506;BME280;58032;49.820;6.274;2022-12-18T05:40:51;67390.78;;;-149.55;100.00
70506;BME280;58032;49.820;6.274;2022-12-18T05:43:22;67390.78;;;-149.55;100.00
70506;BME280;58032;49.820;6.274;2022-12-18T05:45:49;67390.78;;;-149.55;100.00
70506;BME280;58032;49.820;6.274;2022-12-18T05:48:17;67390.78;;;-149.55;100.00
70506;BME280;58032;49.820;6.274;2022-12-18T05:50:46;67390.78;;;-149.55;100.00
70506;BME280;58032;49.820;6.274;2022-12-18T05:53:19;67390.78;;;-149.55;100.00
70506;BME280;58032;49.820;6.274;2022-12-18T05:55:47;67390.78;;;-149.55;100.00
70506;BME280;58032;49.820;6.274;2022-12-18T05:58:14;67390.78;;;-149.55;100.00
70506;BME280;58032;49.820;6.274;2022-12-18T06:00:44;67390.78;;;-149.55;100.00
70506;BME280;58032;49.820;6.274;2022-12-18T06:03:12;67390.78;;;-149.55;100.00
70506;BME280;58032;49.820;6.274;2022-12-18T06:05:42;67390.78;;;-149.55;100.00
70506;BME280;58032;49.820;6.274;2022-12-18T06:08:10;67390.78;;;-149.55;100.00
70506;BME280;58032;49.820;6.274;2022-12-18T06:10:37;67390.78;;;-149.55;100.00
70506;BME280;58032;49.820;6.274;2022-12-18T06:13:05;67390.78;;;-149.55;100.00
70506;BME280;58032;49.820;6.274;2022-12-18T06:15:32;67390.78;;;-149.55;100.00
70506;BME280;58032;49.820;6.274;2022-12-18T06:18:00;67390.78;;;-149.55;100.00
70506;BME280;58032;49.820;6.274;2022-12-18T06:20:27;67390.78;;;-149.55;100.00
70506;BME280;58032;49.820;6.274;2022-12-18T06:22:57;67390.78;;;-149.55;100.00
70506;BME280;58032;49.820;6.274;2022-12-18T06:25:24;67390.78;;;-149.55;100.00
70506;BME280;58032;49.820;6.274;2022-12-18T06:27:51;67390.78;;;-149.55;100.00
70506;BME280;58032;49.820;6.274;2022-12-18T06:30:18;67390.78;;;-149.55;100.00
70506;BME280;58032;49.820;6.274;2022-12-18T06:32:45;67390.78;;;-149.55;100.00
70506;BME280;58032;49.820;6.274;2022-12-18T06:35:13;67390.78;;;-149.55;100.00
70506;BME280;58032;49.820;6.274;2022-12-18T06:37:40;67390.78;;;-149.55;100.00
70506;BME280;58032;49.820;6.274;2022-12-18T06:40:07;67390.78;;;-149.55;100.00
70506;BME280;58032;49.820;6.274;2022-12-18T06:42:34;67390.78;;;-149.55;100.00
70506;BME280;58032;49.820;6.274;2022-12-18T06:45:01;67390.78;;;-149.55;100.00
70506;BME280;58032;49.820;6.274;2022-12-18T06:47:27;67390.78;;;-149.55;100.00
70506;BME280;58032;49.820;6.274;2022-12-18T06:49:54;67390.78;;;-149.55;100.00
70506;BME280;58032;49.820;6.274;2022-12-18T06:52:21;67390.78;;;-149.55;100.00
70506;BME280;58032;49.820;6.274;2022-12-18T06:54:48;67390.78;;;-149.55;100.00
70506;BME280;58032;49.820;6.274;2022-12-18T06:57:15;67390.78;;;-149.55;100.00
70506;BME280;58032;49.820;6.274;2022-12-18T06:59:42;67390.78;;;-149.55;100.00
70506;BME280;58032;49.820;6.274;2022-12-18T07:02:11;67390.78;;;-149.55;100.00
70506;BME280;58032;49.820;6.274;2022-12-18T07:04:39;67390.78;;;-149.55;100.00
70506;BME280;58032;49.820;6.274;2022-12-18T07:07:05;67390.78;;;-149.55;100.00
70506;BME280;58032;49.820;6.274;2022-12-18T07:09:33;67390.78;;;-149.55;100.00
70506;BME280;58032;49.820;6.274;2022-12-18T07:11:59;67390.78;;;-149.55;100.00
70506;BME280;58032;49.820;6.274;2022-12-18T07:14:26;67390.78;;;-149.55;100.00
70506;BME280;58032;49.820;6.274;2022-12-18T07:16:53;67390.78;;;-149.55;100.00
70506;BME280;58032;49.820;6.274;2022-12-18T07:19:20;67390.78;;;-149.55;100.00
70506;BME280;58032;49.820;6.274;2022-12-18T07:21:50;67390.78;;;-149.55;100.00
70506;BME280;58032;49.820;6.274;2022-12-18T07:24:17;67390.78;;;-149.55;100.00
70506;BME280;58032;49.820;6.274;2022-12-18T07:26:48;67390.78;;;-149.55;100.00
70506;BME280;58032;49.820;6.274;2022-12-18T07:29:15;67390.78;;;-149.55;100.00
70506;BME280;58032;49.820;6.274;2022-12-18T07:31:42;67390.78;;;-149.55;100.00
70506;BME280;58032;49.820;6.274;2022-12-18T07:34:13;67390.78;;;-149.55;100.00
70506;BME280;58032;49.820;6.274;2022-12-18T07:36:40;67390.78;;;-149.55;100.00
70506;BME280;58032;49.820;6.274;2022-12-18T07:39:07;67390.78;;;-149.55;100.00
70506;BME280;58032;49.820;6.274;2022-12-18T07:41:34;67390.78;;;-149.55;100.00
70506;BME280;58032;49.820;6.274;2022-12-18T07:44:11;67390.78;;;-149.55;100.00
70506;BME280;58032;49.820;6.274;2022-12-18T07:46:39;67390.78;;;-149.55;100.00
70506;BME280;58032;49.820;6.274;2022-12-18T07:49:05;67390.78;;;-149.55;100.00
70506;BME280;58032;49.820;6.274;2022-12-18T07:51:32;67390.78;;;-149.55;100.00
70506;BME280;58032;49.820;6.274;2022-12-18T07:53:59;67390.78;;;-149.55;100.00
70506;BME280;58032;49.820;6.274;2022-12-18T07:56:26;67390.78;;;-149.55;100.00
70506;BME280;58032;49.820;6.274;2022-12-18T07:58:54;67390.78;;;-149.55;100.00
70506;BME280;58032;49.820;6.274;2022-12-18T08:01:21;67390.78;;;-149.55;100.00
70506;BME280;58032;49.820;6.274;2022-12-18T08:03:48;67390.78;;;-149.55;100.00
70506;BME280;58032;49.820;6.274;2022-12-18T08:06:15;67390.78;;;-149.55;100.00
70506;BME280;58032;49.820;6.274;2022-12-18T08:08:42;67390.78;;;-149.55;100.00
70506;BME280;58032;49.820;6.274;2022-12-18T08:11:09;67390.78;;;-149.55;100.00
70506;BME280;58032;49.820;6.274;2022-12-18T08:13:35;67390.78;;;-149.55;100.00
70506;BME280;58032;49.820;6.274;2022-12-18T08:16:05;67390.78;;;-149.55;100.00
70506;BME280;58032;49.820;6.274;2022-12-18T08:18:33;67390.78;;;-149.55;100.00
70506;BME280;58032;49.820;6.274;2022-12-18T08:21:14;67390.78;;;-149.55;100.00
70506;BME280;58032;49.820;6.274;2022-12-18T08:23:42;67390.78;;;-149.55;100.00
70506;BME280;58032;49.820;6.274;2022-12-18T08:26:10;67390.78;;;-149.55;100.00
70506;BME280;58032;49.820;6.274;2022-12-18T08:28:37;67390.78;;;-149.55;100.00
70506;BME280;58032;49.820;6.274;2022-12-18T08:31:05;67390.78;;;-149.55;100.00
70506;BME280;58032;49.820;6.274;2022-12-18T08:33:32;67390.78;;;-149.55;100.00
70506;BME280;58032;49.820;6.274;2022-12-18T08:36:00;67390.78;;;-149.55;100.00
70506;BME280;58032;49.820;6.274;2022-12-18T08:38:28;67390.78;;;-149.55;100.00
70506;BME280;58032;49.820;6.274;2022-12-18T08:41:02;67390.78;;;-149.55;100.00
70506;BME280;58032;49.820;6.274;2022-12-18T08:43:29;67390.78;;;-149.55;100.00
70506;BME280;58032;49.820;6.274;2022-12-18T08:46:16;67390.78;;;-149.55;100.00
70506;BME280;58032;49.820;6.274;2022-12-18T08:48:44;67390.78;;;-149.55;100.00
70506;BME280;58032;49.820;6.274;2022-12-18T08:51:11;67390.78;;;-149.55;100.00
70506;BME280;58032;49.820;6.274;2022-12-18T08:53:38;67390.78;;;-149.55;100.00
70506;BME280;58032;49.820;6.274;2022-12-18T08:56:05;67390.78;;;-149.55;100.00
70506;BME280;58032;49.820;6.274;2022-12-18T08:58:32;67390.78;;;-149.55;100.00
70506;BME280;58032;49.820;6.274;2022-12-18T09:01:00;67390.78;;;-149.55;100.00
70506;BME280;58032;49.820;6.274;2022-12-18T09:03:28;67390.78;;;-149.55;100.00
70506;BME280;58032;49.820;6.274;2022-12-18T09:05:55;67390.78;;;-149.55;100.00
70506;BME280;58032;49.820;6.274;2022-12-18T09:08:22;67390.78;;;-149.55;100.00
70506;BME280;58032;49.820;6.274;2022-12-18T09:10:51;67390.78;;;-149.55;100.00
70506;BME280;58032;49.820;6.274;2022-12-18T09:13:18;67390.78;;;-149.55;100.00
70506;BME280;58032;49.820;6.274;2022-12-18T09:15:48;67390.78;;;-149.55;100.00
70506;BME280;58032;49.820;6.274;2022-12-18T09:18:17;67390.78;;;-149.55;100.00
70506;BME280;58032;49.820;6.274;2022-12-18T09:20:45;67390.78;;;-149.55;100.00
70506;BME280;58032;49.820;6.274;2022-12-18T09:23:12;67390.78;;;-149.55;100.00
70506;BME280;58032;49.820;6.274;2022-12-18T09:25:39;67390.78;;;-149.55;100.00
70506;BME280;58032;49.820;6.274;2022-12-18T09:28:16;67390.78;;;-149.55;100.00
70506;BME280;58032;49.820;6.274;2022-12-18T09:30:46;67390.78;;;-149.55;100.00
70506;BME280;58032;49.820;6.274;2022-12-18T09:33:13;67390.78;;;-149.55;100.00
70506;BME280;58032;49.820;6.274;2022-12-18T09:35:41;67390.78;;;-149.55;100.00
70506;BME280;58032;49.820;6.274;2022-12-18T09:38:13;67390.78;;;-149.55;100.00
70506;BME280;58032;49.820;6.274;2022-12-18T09:40:46;67390.78;;;-149.55;100.00
70506;BME280;58032;49.820;6.274;2022-12-18T09:43:20;67390.78;;;-149.55;100.00
70506;BME280;58032;49.820;6.274;2022-12-18T09:45:55;67390.78;;;-149.55;100.00
70506;BME280;58032;49.820;6.274;2022-12-18T09:48:50;67390.78;;;-149.55;100.00
70506;BME280;58032;49.820;6.274;2022-12-18T09:53:58;67390.78;;;-149.55;100.00
70506;BME280;58032;49.820;6.274;2022-12-18T09:56:34;67390.78;;;-149.55;100.00
70506;BME280;58032;49.820;6.274;2022-12-18T09:59:03;67390.78;;;-149.55;100.00
70506;BME280;58032;49.820;6.274;2022-12-18T10:01:31;67390.78;;;-149.55;100.00
70506;BME280;58032;49.820;6.274;2022-12-18T10:04:07;67390.78;;;-149.55;100.00
70506;BME280;58032;49.820;6.274;2022-12-18T10:07:05;67390.78;;;-149.55;100.00
70506;BME280;58032;49.820;6.274;2022-12-18T10:09:55;67390.78;;;-149.55;100.00
70506;BME280;58032;49.820;6.274;2022-12-18T10:12:47;67390.78;;;-149.55;100.00
70506;BME280;58032;49.820;6.274;2022-12-18T10:15:37;67390.78;;;-149.55;100.00
70506;BME280;58032;49.820;6.274;2022-12-18T10:18:22;67390.78;;;-149.55;100.00
70506;BME280;58032;49.820;6.274;2022-12-18T10:20:57;67390.78;;;-149.55;100.00
70506;BME280;58032;49.820;6.274;2022-12-18T10:28:32;67390.78;;;-149.55;100.00
70506;BME280;58032;49.820;6.274;2022-12-18T10:30:59;67390.78;;;-149.55;100.00
70506;BME280;58032;49.820;6.274;2022-12-18T10:33:31;67390.78;;;-149.55;100.00
70506;BME280;58032;49.820;6.274;2022-12-18T10:35:58;67390.78;;;-149.55;100.00
70506;BME280;58032;49.820;6.274;2022-12-18T10:38:31;67390.78;;;-149.55;100.00
70506;BME280;58032;49.820;6.274;2022-12-18T10:41:42;67390.78;;;-149.55;100.00
70506;BME280;58032;49.820;6.274;2022-12-18T10:46:46;67390.78;;;-149.55;100.00
70506;BME280;58032;49.820;6.274;2022-12-18T10:49:28;67390.78;;;-149.55;100.00
70506;BME280;58032;49.820;6.274;2022-12-18T10:52:17;67390.78;;;-149.55;100.00
70506;BME280;58032;49.820;6.274;2022-12-18T10:54:55;67390.78;;;-149.55;100.00
70506;BME280;58032;49.820;6.274;2022-12-18T10:57:39;67390.78;;;-149.55;100.00
70506;BME280;58032;49.820;6.274;2022-12-18T11:00:26;67390.78;;;-149.55;100.00
70506;BME280;58032;49.820;6.274;2022-12-18T11:02:54;67390.78;;;-149.55;100.00
70506;BME280;58032;49.820;6.274;2022-12-18T11:05:31;67390.78;;;-149.55;100.00
70506;BME280;58032;49.820;6.274;2022-12-18T11:07:59;67390.78;;;-149.55;100.00
70506;BME280;58032;49.820;6.274;2022-12-18T11:10:32;67390.78;;;-149.55;100.00
70506;BME280;58032;49.820;6.274;2022-12-18T11:13:21;67390.78;;;-149.55;100.00
70506;BME280;58032;49.820;6.274;2022-12-18T11:15:49;67390.78;;;-149.55;100.00
70506;BME280;58032;49.820;6.274;2022-12-18T11:18:19;98431.59;;;-6.39;100.00
70506;BME280;58032;49.820;6.274;2022-12-18T11:20:51;98523.22;;;-5.15;100.00
70506;BME280;58032;49.820;6.274;2022-12-18T11:23:21;98521.31;;;-5.53;100.00
70506;BME280;58032;49.820;6.274;2022-12-18T11:25:59;98513.13;;;-5.71;100.00
70506;BME280;58032;49.820;6.274;2022-12-18T11:28:38;98526.34;;;-5.73;100.00
70506;BME280;58032;49.820;6.274;2022-12-18T11:31:17;98523.31;;;-5.33;100.00
70506;BME280;58032;49.820;6.274;2022-12-18T11:34:11;98510.34;;;-5.23;100.00
70506;BME280;58032;49.820;6.274;2022-12-18T11:36:58;98504.97;;;-4.90;100.00
70506;BME280;58032;49.820;6.274;2022-12-18T11:40:11;98503.09;;;-4.77;100.00
70506;BME280;58032;49.820;6.274;2022-12-18T11:42:59;98504.03;;;-4.31;100.00
70506;BME280;58032;49.820;6.274;2022-12-18T11:45:34;98506.66;;;-4.55;100.00
70506;BME280;58032;49.820;6.274;2022-12-18T11:53:03;98490.69;;;-4.62;100.00
70506;BME280;58032;49.820;6.274;2022-12-18T11:56:01;98483.69;;;-4.38;100.00
70506;BME280;58032;49.820;6.274;2022-12-18T11:58:48;98478.53;;;-4.40;100.00
70506;BME280;58032;49.820;6.274;2022-12-18T12:09:44;98456.66;;;-4.70;100.00
70506;BME280;58032;49.820;6.274;2022-12-18T12:12:33;98459.88;;;-4.68;100.00
70506;BME280;58032;49.820;6.274;2022-12-18T12:15:55;98456.91;;;-4.63;100.00
70506;BME280;58032;49.820;6.274;2022-12-18T12:18:42;98459.94;;;-4.55;100.00
70506;BME280;58032;49.820;6.274;2022-12-18T12:38:00;98435.44;;;-4.48;100.00
70506;BME280;58032;49.820;6.274;2022-12-18T12:40:39;98437.03;;;-4.14;100.00
70506;BME280;58032;49.820;6.274;2022-12-18T12:46:00;98441.09;;;-4.32;100.00
70506;BME280;58032;49.820;6.274;2022-12-18T12:51:09;98440.56;;;-4.25;100.00
70506;BME280;58032;49.820;6.274;2022-12-18T12:53:37;98429.38;;;-4.08;100.00
70506;BME280;58032;49.820;6.274;2022-12-18T12:56:07;98435.53;;;-4.11;100.00
70506;BME280;58032;49.820;6.274;2022-12-18T13:01:42;98417.13;;;-4.10;100.00
70506;BME280;58032;49.820;6.274;2022-12-18T13:04:26;98423.41;;;-4.10;100.00
70506;BME280;58032;49.820;6.274;2022-12-18T13:07:18;98423.53;;;-3.94;100.00
70506;BME280;58032;49.820;6.274;2022-12-18T13:12:56;98431.47;;;-3.92;100.00
70506;BME280;58032;49.820;6.274;2022-12-18T13:15:41;98429.16;;;-3.90;100.00
70506;BME280;58032;49.820;6.274;2022-12-18T13:18:20;98417.66;;;-4.30;100.00
70506;BME280;58032;49.820;6.274;2022-12-18T13:20:53;98417.00;;;-4.02;100.00
70506;BME280;58032;49.820;6.274;2022-12-18T13:23:34;98414.66;;;-4.37;100.00
70506;BME280;58032;49.820;6.274;2022-12-18T13:31:00;98406.13;;;-4.44;100.00
70506;BME280;58032;49.820;6.274;2022-12-18T13:36:31;98389.81;;;-4.28;100.00
70506;BME280;58032;49.820;6.274;2022-12-18T13:41:43;98386.03;;;-4.11;100.00
70506;BME280;58032;49.820;6.274;2022-12-18T13:46:48;98389.91;;;-4.24;100.00
70506;BME280;58032;49.820;6.274;2022-12-18T13:51:55;98391.03;;;-4.38;100.00
70506;BME280;58032;49.820;6.274;2022-12-18T13:54:39;98385.59;;;-4.59;100.00
70506;BME280;58032;49.820;6.274;2022-12-18T13:57:29;98386.34;;;-4.71;100.00
70506;BME280;58032;49.820;6.274;2022-12-18T13:59:58;98393.25;;;-4.86;100.00
70506;BME280;58032;49.820;6.274;2022-12-18T14:02:27;98390.59;;;-4.95;100.00
70506;BME280;58032;49.820;6.274;2022-12-18T14:04:54;98389.94;;;-4.91;100.00
70506;BME280;58032;49.820;6.274;2022-12-18T14:07:26;98395.69;;;-4.84;100.00
70506;BME280;58032;49.820;6.274;2022-12-18T14:09:56;98402.19;;;-4.89;100.00
70506;BME280;58032;49.820;6.274;2022-12-18T14:12:48;98398.88;;;-4.82;100.00
70506;BME280;58032;49.820;6.274;2022-12-18T14:17:57;98403.00;;;-4.88;100.00
70506;BME280;58032;49.820;6.274;2022-12-18T14:20:26;98401.50;;;-4.86;100.00
70506;BME280;58032;49.820;6.274;2022-12-18T14:22:54;98400.44;;;-4.94;100.00
70506;BME280;58032;49.820;6.274;2022-12-18T14:25:24;98395.97;;;-4.98;100.00
70506;BME280;58032;49.820;6.274;2022-12-18T14:30:39;98397.44;;;-5.01;100.00
70506;BME280;58032;49.820;6.274;2022-12-18T14:33:25;98400.59;;;-4.90;100.00